createdAt,value
2022-10-31T00:01:13.112Z,4.22
2022-10-31T00:03:43.899Z,4.55
2022-10-31T00:06:12.114Z,4.47
2022-10-31T00:08:41.550Z,4.70
2022-10-31T00:11:11.002Z,4.90
2022-10-31T00:13:39.172Z,4.80
2022-10-31T00:16:16.188Z,4.65
2022-10-31T00:18:44.497Z,4.43
2022-10-31T00:21:12.503Z,4.25
2022-10-31T00:23:41.849Z,4.70
2022-10-31T00:26:09.915Z,4.75
2022-10-31T00:28:37.893Z,4.78
2022-10-31T00:31:07.694Z,4.35
2022-10-31T00:33:37.596Z,4.43
2022-10-31T00:36:07.361Z,4.30
2022-10-31T00:38:35.595Z,4.25
2022-10-31T00:41:05.053Z,3.80
2022-10-31T00:43:33.127Z,3.83
2022-10-31T00:46:01.122Z,4.50
2022-10-31T00:48:29.123Z,3.90
2022-10-31T00:50:57.339Z,4.20
2022-10-31T00:53:25.375Z,3.65
2022-10-31T00:55:53.545Z,3.83
2022-10-31T00:58:23.058Z,3.90
2022-10-31T01:00:56.283Z,3.53
2022-10-31T01:03:25.516Z,3.50
2022-10-31T01:06:01.375Z,3.80
2022-10-31T01:08:29.856Z,3.88
2022-10-31T01:11:02.374Z,3.58
2022-10-31T01:13:32.205Z,3.40
2022-10-31T01:16:01.251Z,3.75
2022-10-31T01:18:30.295Z,4.20
2022-10-31T01:21:03.570Z,3.83
2022-10-31T01:23:34.565Z,4.10
2022-10-31T01:26:06.753Z,3.78
2022-10-31T01:28:36.760Z,3.60
2022-10-31T01:31:06.373Z,3.88
2022-10-31T01:33:34.413Z,3.53
2022-10-31T01:36:02.771Z,3.67
2022-10-31T01:38:30.721Z,3.60
2022-10-31T01:40:58.700Z,3.50
2022-10-31T01:46:42.393Z,3.67
2022-10-31T01:49:15.158Z,3.30
2022-10-31T01:51:55.764Z,3.67
2022-10-31T01:54:26.238Z,3.30
2022-10-31T01:56:59.199Z,3.72
2022-10-31T01:59:31.539Z,3.58
2022-10-31T02:02:01.066Z,3.65
2022-10-31T02:04:29.846Z,3.78
2022-10-31T02:07:02.412Z,3.47
2022-10-31T02:09:35.760Z,3.83
2022-10-31T02:12:04.446Z,4.05
2022-10-31T02:14:33.776Z,4.03
2022-10-31T02:17:03.392Z,3.42
2022-10-31T02:19:37.901Z,3.70
2022-10-31T02:22:14.130Z,3.75
2022-10-31T02:25:00.334Z,3.78
2022-10-31T02:28:09.507Z,3.90
2022-10-31T02:30:47.121Z,3.28
2022-10-31T02:33:27.162Z,3.97
2022-10-31T02:36:06.880Z,3.53
2022-10-31T02:38:44.600Z,4.00
2022-10-31T02:41:20.801Z,3.20
2022-10-31T02:43:59.461Z,3.60
2022-10-31T02:46:33.360Z,3.80
2022-10-31T02:49:08.190Z,3.83
2022-10-31T02:51:36.738Z,3.58
2022-10-31T02:54:04.891Z,3.70
2022-10-31T02:56:33.011Z,3.63
2022-10-31T02:59:04.545Z,3.65
2022-10-31T03:01:58.933Z,4.50
2022-10-31T03:04:56.659Z,4.13
2022-10-31T03:07:37.750Z,3.70
2022-10-31T03:10:15.450Z,4.07
2022-10-31T03:12:52.904Z,4.45
2022-10-31T03:15:27.654Z,4.35
2022-10-31T03:18:00.483Z,4.15
2022-10-31T03:20:32.080Z,4.15
2022-10-31T03:23:04.331Z,3.92
2022-10-31T03:25:36.178Z,4.20
2022-10-31T03:28:06.378Z,4.40
2022-10-31T03:30:38.160Z,4.00
2022-10-31T03:33:10.342Z,3.88
2022-10-31T03:35:41.472Z,4.13
2022-10-31T03:38:11.935Z,3.95
2022-10-31T03:40:43.103Z,4.07
2022-10-31T03:43:15.866Z,4.05
2022-10-31T03:45:47.137Z,4.47
2022-10-31T03:48:16.249Z,3.60
2022-10-31T03:50:51.490Z,4.47
2022-10-31T03:53:27.137Z,4.07
2022-10-31T03:56:01.589Z,4.05
2022-10-31T03:58:38.193Z,3.97
2022-10-31T04:01:09.079Z,4.13
2022-10-31T04:03:40.038Z,4.13
2022-10-31T04:06:10.987Z,4.30
2022-10-31T04:08:44.838Z,3.80
2022-10-31T04:11:14.792Z,4.13
2022-10-31T04:13:46.124Z,4.30
2022-10-31T04:16:17.349Z,4.03
2022-10-31T04:18:45.751Z,4.40
2022-10-31T04:21:13.714Z,4.25
2022-10-31T04:23:46.102Z,4.85
2022-10-31T04:26:15.000Z,4.78
2022-10-31T04:28:42.986Z,4.78
2022-10-31T04:31:13.780Z,4.65
2022-10-31T04:33:41.758Z,4.53
2022-10-31T04:36:10.098Z,5.00
2022-10-31T04:38:38.100Z,4.85
2022-10-31T04:41:07.505Z,5.00
2022-10-31T04:43:35.535Z,5.07
2022-10-31T04:46:03.657Z,4.60
2022-10-31T04:48:31.949Z,4.35
2022-10-31T04:51:03.281Z,4.35
2022-10-31T04:53:31.480Z,4.63
2022-10-31T04:56:01.556Z,4.20
2022-10-31T04:58:37.687Z,4.30
2022-10-31T05:01:05.790Z,4.95
2022-10-31T05:03:33.945Z,4.07
2022-10-31T05:06:01.940Z,4.72
2022-10-31T05:08:31.170Z,4.78
2022-10-31T05:11:04.391Z,4.10
2022-10-31T05:13:34.357Z,3.88
2022-10-31T05:16:02.357Z,4.00
2022-10-31T05:18:30.420Z,4.35
2022-10-31T05:20:58.492Z,3.97
2022-10-31T05:23:26.609Z,4.50
2022-10-31T05:25:54.590Z,4.65
2022-10-31T05:28:22.666Z,4.25
2022-10-31T05:30:52.362Z,4.45
2022-10-31T05:33:20.346Z,4.50
2022-10-31T05:35:48.355Z,4.35
2022-10-31T05:38:16.372Z,4.63
2022-10-31T05:40:44.405Z,4.20
2022-10-31T05:43:12.524Z,4.25
2022-10-31T05:45:40.598Z,3.72
2022-10-31T05:48:10.873Z,4.25
2022-10-31T05:50:38.821Z,4.50
2022-10-31T05:53:07.569Z,4.20
2022-10-31T05:55:35.649Z,4.03
2022-10-31T05:58:04.020Z,4.38
2022-10-31T06:00:32.947Z,4.50
2022-10-31T06:03:01.700Z,4.35
2022-10-31T06:05:31.853Z,4.38
2022-10-31T06:08:01.016Z,4.88
2022-10-31T06:10:29.560Z,4.60
2022-10-31T06:12:57.561Z,4.32
2022-10-31T06:15:25.609Z,4.25
2022-10-31T06:18:01.435Z,4.28
2022-10-31T06:20:31.223Z,4.32
2022-10-31T06:22:59.861Z,3.78
2022-10-31T06:25:28.229Z,4.30
2022-10-31T06:27:57.009Z,4.30
2022-10-31T06:30:24.962Z,3.88
2022-10-31T06:32:52.953Z,3.63
2022-10-31T06:35:21.084Z,4.43
2022-10-31T06:37:55.266Z,4.00
2022-10-31T06:40:23.659Z,3.85
2022-10-31T06:42:58.773Z,4.03
2022-10-31T06:45:27.073Z,4.70
2022-10-31T06:50:43.394Z,4.20
2022-10-31T06:53:16.117Z,3.95
2022-10-31T06:55:44.844Z,4.30
2022-10-31T06:58:13.642Z,5.03
2022-10-31T07:00:43.335Z,4.60
2022-10-31T07:03:15.088Z,4.63
2022-10-31T07:05:43.314Z,4.82
2022-10-31T07:08:14.460Z,3.92
2022-10-31T07:10:44.921Z,3.70
2022-10-31T07:13:15.544Z,4.28
2022-10-31T07:15:44.969Z,3.42
2022-10-31T07:18:15.432Z,3.75
2022-10-31T07:20:43.459Z,3.70
2022-10-31T07:23:13.326Z,4.22
2022-10-31T07:25:41.402Z,3.80
2022-10-31T07:28:10.561Z,4.30
2022-10-31T07:30:39.168Z,4.63
2022-10-31T07:33:07.802Z,4.97
2022-10-31T07:35:36.363Z,7.25
2022-10-31T07:38:13.148Z,4.85
2022-10-31T07:40:41.513Z,4.47
2022-10-31T07:43:14.053Z,5.07
2022-10-31T07:45:42.836Z,5.93
2022-10-31T07:48:10.918Z,4.47
2022-10-31T07:50:40.210Z,4.63
2022-10-31T07:53:10.705Z,5.05
2022-10-31T07:55:40.710Z,4.88
2022-10-31T07:58:10.649Z,4.57
2022-10-31T08:00:40.940Z,4.10
2022-10-31T08:03:10.557Z,4.28
2022-10-31T08:05:39.211Z,4.28
2022-10-31T08:08:07.817Z,4.57
2022-10-31T08:10:36.977Z,4.75
2022-10-31T08:13:08.471Z,4.68
2022-10-31T08:15:40.788Z,4.35
2022-10-31T08:18:13.188Z,4.45
2022-10-31T08:20:41.498Z,4.40
2022-10-31T08:23:11.343Z,4.03
2022-10-31T08:25:40.003Z,4.63
2022-10-31T08:28:11.571Z,4.10
2022-10-31T08:30:40.694Z,4.20
2022-10-31T08:33:12.409Z,4.05
2022-10-31T08:35:40.934Z,4.40
2022-10-31T08:38:10.648Z,5.70
2022-10-31T08:40:39.032Z,4.63
2022-10-31T08:43:12.703Z,5.18
2022-10-31T08:45:40.950Z,5.13
2022-10-31T08:48:11.927Z,5.55
2022-10-31T08:50:40.358Z,5.47
2022-10-31T08:53:11.586Z,5.32
2022-10-31T08:55:41.979Z,5.30
2022-10-31T08:58:13.665Z,5.35
2022-10-31T09:00:43.701Z,5.45
2022-10-31T09:03:13.664Z,5.07
2022-10-31T09:05:42.190Z,5.60
2022-10-31T09:08:16.011Z,5.53
2022-10-31T09:10:45.432Z,5.45
2022-10-31T09:13:16.820Z,5.38
2022-10-31T09:15:46.083Z,5.20
2022-10-31T09:18:15.833Z,5.00
2022-10-31T09:20:45.394Z,4.90
2022-10-31T09:23:17.990Z,5.20
2022-10-31T09:25:50.429Z,4.82
2022-10-31T09:28:22.054Z,4.63
2022-10-31T09:30:51.554Z,5.03
2022-10-31T09:33:19.966Z,5.13
2022-10-31T09:35:51.081Z,4.80
2022-10-31T09:38:21.172Z,4.78
2022-10-31T09:40:51.262Z,5.00
2022-10-31T09:43:32.242Z,4.68
2022-10-31T09:46:08.177Z,4.30
2022-10-31T09:48:46.727Z,4.53
2022-10-31T09:51:19.067Z,5.50
2022-10-31T09:53:52.340Z,4.90
2022-10-31T09:56:25.320Z,5.28
2022-10-31T09:58:56.973Z,5.38
2022-10-31T10:01:34.585Z,5.78
2022-10-31T10:04:15.657Z,4.75
2022-10-31T10:06:51.818Z,4.57
2022-10-31T10:09:26.458Z,5.63
2022-10-31T10:12:06.856Z,4.97
2022-10-31T10:14:49.294Z,5.53
2022-10-31T10:17:28.969Z,5.25
2022-10-31T10:20:20.653Z,5.85
2022-10-31T10:22:56.625Z,5.55
2022-10-31T10:25:26.035Z,6.30
2022-10-31T10:28:04.828Z,6.22
2022-10-31T10:30:41.266Z,6.20
2022-10-31T10:33:13.741Z,5.78
2022-10-31T10:35:47.446Z,5.93
2022-10-31T10:38:24.206Z,4.65
2022-10-31T10:40:54.116Z,3.47
2022-10-31T10:43:26.273Z,3.50
2022-10-31T10:46:39.385Z,3.50
2022-10-31T10:49:17.889Z,3.85
2022-10-31T10:52:07.051Z,3.42
2022-10-31T10:54:47.892Z,4.38
2022-10-31T10:57:29.195Z,6.25
2022-10-31T10:59:57.445Z,6.97
2022-10-31T11:02:28.988Z,6.05
2022-10-31T11:04:59.654Z,5.10
2022-10-31T11:07:27.877Z,5.10
2022-10-31T11:10:05.843Z,7.07
2022-10-31T11:12:35.513Z,5.85
2022-10-31T11:15:10.566Z,5.35
2022-10-31T11:17:42.536Z,4.93
2022-10-31T11:20:31.187Z,5.20
2022-10-31T11:23:19.563Z,4.28
2022-10-31T11:25:53.696Z,4.78
2022-10-31T11:28:21.767Z,5.30
2022-10-31T11:30:53.213Z,5.68
2022-10-31T11:33:28.240Z,5.50
2022-10-31T11:35:58.452Z,5.88
2022-10-31T11:38:41.488Z,6.13
2022-10-31T11:41:14.967Z,5.78
2022-10-31T11:43:51.589Z,6.13
2022-10-31T11:46:23.649Z,6.18
2022-10-31T11:48:56.630Z,6.57
2022-10-31T11:51:28.911Z,6.57
2022-10-31T11:54:02.689Z,7.38
2022-10-31T11:56:41.448Z,6.00
2022-10-31T11:59:24.392Z,6.38
2022-10-31T12:01:57.683Z,6.65
2022-10-31T12:04:35.424Z,6.47
2022-10-31T12:07:03.689Z,8.25
2022-10-31T12:09:35.908Z,7.57
2022-10-31T12:12:33.925Z,6.43
2022-10-31T12:15:14.156Z,6.60
2022-10-31T12:17:47.508Z,6.68
2022-10-31T12:20:39.826Z,6.10
2022-10-31T12:23:19.066Z,6.15
2022-10-31T12:25:53.748Z,5.75
2022-10-31T12:28:49.885Z,5.10
2022-10-31T12:31:36.316Z,5.68
2022-10-31T12:34:34.265Z,5.60
2022-10-31T12:37:07.572Z,5.22
2022-10-31T12:39:44.526Z,4.72
2022-10-31T12:42:24.328Z,5.40
2022-10-31T12:45:21.867Z,5.10
2022-10-31T12:48:20.479Z,4.95
2022-10-31T12:51:01.217Z,5.93
2022-10-31T12:53:43.959Z,4.55
2022-10-31T12:56:25.059Z,4.75
2022-10-31T12:58:57.548Z,5.00
2022-10-31T13:01:32.516Z,4.57
2022-10-31T13:04:05.711Z,4.40
2022-10-31T13:06:44.372Z,4.50
2022-10-31T13:09:19.131Z,5.38
2022-10-31T13:11:50.910Z,5.97
2022-10-31T13:14:26.853Z,5.82
2022-10-31T13:16:57.705Z,6.05
2022-10-31T13:19:30.394Z,6.20
2022-10-31T13:22:05.661Z,4.00
2022-10-31T13:24:39.143Z,3.92
2022-10-31T13:27:16.119Z,4.13
2022-10-31T13:29:52.516Z,4.68
2022-10-31T13:32:21.511Z,4.35
2022-10-31T13:34:54.490Z,4.20
2022-10-31T13:37:37.278Z,4.03
2022-10-31T13:40:19.036Z,4.30
2022-10-31T13:42:57.715Z,4.18
2022-10-31T13:45:27.751Z,3.83
2022-10-31T13:48:02.507Z,4.18
2022-10-31T13:50:32.466Z,4.13
2022-10-31T13:53:21.229Z,4.28
2022-10-31T13:55:52.689Z,4.43
2022-10-31T13:58:26.804Z,4.35
2022-10-31T14:01:07.451Z,4.25
2022-10-31T14:04:04.599Z,4.22
2022-10-31T14:06:36.791Z,4.20
2022-10-31T14:09:05.161Z,4.43
2022-10-31T14:11:37.211Z,4.05
2022-10-31T14:14:12.598Z,4.13
2022-10-31T14:16:45.734Z,4.70
2022-10-31T14:19:18.844Z,4.45
2022-10-31T14:21:48.112Z,4.13
2022-10-31T14:24:31.393Z,4.30
2022-10-31T14:27:02.475Z,4.35
2022-10-31T14:29:32.526Z,5.03
2022-10-31T14:32:15.492Z,4.80
2022-10-31T14:34:44.891Z,5.72
2022-10-31T14:37:47.327Z,6.00
2022-10-31T14:40:35.465Z,5.93
2022-10-31T14:43:38.866Z,5.70
2022-10-31T14:46:14.034Z,4.70
2022-10-31T14:49:02.091Z,4.90
2022-10-31T14:51:37.619Z,6.07
2022-10-31T14:54:12.422Z,5.70
2022-10-31T14:56:48.192Z,5.60
2022-10-31T14:59:20.145Z,10.45
2022-10-31T15:01:57.942Z,9.07
2022-10-31T15:04:28.962Z,6.28
2022-10-31T15:07:02.965Z,5.80
2022-10-31T15:09:33.161Z,5.72
2022-10-31T15:12:01.983Z,5.55
2022-10-31T15:14:33.436Z,5.35
2022-10-31T15:17:05.201Z,5.53
2022-10-31T15:19:37.421Z,5.63
2022-10-31T15:22:05.654Z,5.63
2022-10-31T15:24:38.236Z,6.28
2022-10-31T15:27:07.080Z,6.60
2022-10-31T15:29:50.825Z,6.30
2022-10-31T15:32:23.774Z,5.90
2022-10-31T15:34:52.901Z,6.63
2022-10-31T15:37:22.770Z,6.80
2022-10-31T15:39:52.142Z,7.40
2022-10-31T15:42:23.592Z,7.72
2022-10-31T15:44:57.763Z,8.45
2022-10-31T15:47:26.380Z,10.55
2022-10-31T15:49:56.521Z,9.48
2022-10-31T15:52:31.893Z,7.90
2022-10-31T15:55:02.706Z,6.80
2022-10-31T15:57:31.278Z,6.32
2022-10-31T16:00:00.913Z,8.95
2022-10-31T16:02:29.792Z,8.75
2022-10-31T16:04:59.930Z,7.25
2022-10-31T16:07:28.395Z,7.05
2022-10-31T16:10:01.192Z,8.20
2022-10-31T16:12:33.966Z,7.00
2022-10-31T16:15:05.926Z,6.90
2022-10-31T16:17:34.241Z,7.00
2022-10-31T16:20:05.191Z,7.68
2022-10-31T16:22:36.539Z,7.40
2022-10-31T16:25:10.794Z,7.70
2022-10-31T16:27:40.656Z,7.43
2022-10-31T16:30:32.681Z,8.50
2022-10-31T16:33:03.114Z,29.75
2022-10-31T16:35:35.390Z,17.17
2022-10-31T16:38:04.053Z,10.20
2022-10-31T16:40:32.947Z,6.70
2022-10-31T16:43:02.780Z,8.65
2022-10-31T16:45:33.940Z,8.98
2022-10-31T16:48:08.012Z,15.63
2022-10-31T16:50:36.116Z,15.32
2022-10-31T16:53:19.483Z,8.80
2022-10-31T16:55:52.832Z,7.28
2022-10-31T16:58:24.692Z,6.55
2022-10-31T17:00:57.346Z,6.25
2022-10-31T17:03:28.174Z,5.05
2022-10-31T17:05:59.317Z,6.07
2022-10-31T17:08:27.318Z,5.80
2022-10-31T17:10:58.957Z,5.40
2022-10-31T17:13:29.148Z,5.32
2022-10-31T17:16:00.924Z,5.20
2022-10-31T17:18:29.223Z,4.45
2022-10-31T17:20:59.653Z,4.10
2022-10-31T17:23:28.415Z,4.28
2022-10-31T17:25:56.481Z,5.20
2022-10-31T17:28:26.789Z,5.75
2022-10-31T17:30:56.307Z,5.10
2022-10-31T17:33:25.764Z,5.35
2022-10-31T17:35:53.932Z,4.80
2022-10-31T17:38:21.934Z,5.13
2022-10-31T17:40:50.053Z,5.55
2022-10-31T17:43:20.417Z,6.53
2022-10-31T17:45:48.420Z,6.10
2022-10-31T17:48:16.610Z,6.18
2022-10-31T17:50:46.539Z,5.50
2022-10-31T17:53:14.490Z,5.82
2022-10-31T17:55:42.639Z,5.82
2022-10-31T17:58:18.041Z,4.65
2022-10-31T18:00:50.483Z,4.80
2022-10-31T18:03:19.599Z,5.05
2022-10-31T18:05:58.593Z,4.68
2022-10-31T18:08:27.847Z,4.75
2022-10-31T18:10:56.812Z,5.05
2022-10-31T18:13:28.188Z,5.18
2022-10-31T18:15:58.128Z,4.72
2022-10-31T18:18:26.164Z,4.68
2022-10-31T18:20:59.183Z,4.30
2022-10-31T18:23:27.209Z,5.18
2022-10-31T18:25:55.465Z,4.28
2022-10-31T18:28:23.644Z,4.32
2022-10-31T18:30:51.803Z,4.15
2022-10-31T18:33:19.863Z,4.13
2022-10-31T18:35:47.872Z,4.15
2022-10-31T18:38:17.491Z,6.40
2022-10-31T18:40:45.584Z,8.10
2022-10-31T18:43:14.303Z,6.75
2022-10-31T18:45:52.299Z,5.13
2022-10-31T18:48:23.983Z,5.00
2022-10-31T18:50:52.213Z,4.75
2022-10-31T18:53:21.783Z,4.88
2022-10-31T18:55:52.804Z,5.10
2022-10-31T18:58:20.956Z,4.85
2022-10-31T19:00:49.301Z,5.50
2022-10-31T19:03:24.892Z,5.30
2022-10-31T19:05:56.582Z,4.15
2022-10-31T19:08:26.118Z,4.55
2022-10-31T19:10:54.395Z,4.03
2022-10-31T19:13:22.409Z,4.22
2022-10-31T19:15:53.560Z,3.78
2022-10-31T19:18:24.695Z,4.93
2022-10-31T19:20:52.879Z,4.38
2022-10-31T19:23:21.017Z,5.00
2022-10-31T19:25:53.299Z,4.90
2022-10-31T19:28:21.444Z,4.72
2022-10-31T19:30:55.195Z,4.00
2022-10-31T19:33:29.511Z,3.67
2022-10-31T19:36:01.197Z,4.82
2022-10-31T19:38:37.182Z,4.72
2022-10-31T19:41:11.163Z,4.97
2022-10-31T19:43:39.907Z,4.85
2022-10-31T19:46:17.418Z,4.95
2022-10-31T19:48:57.231Z,5.25
2022-10-31T19:51:25.318Z,5.63
2022-10-31T19:53:53.393Z,5.82
2022-10-31T19:56:24.550Z,5.18
2022-10-31T19:58:55.390Z,6.15
2022-10-31T20:01:27.677Z,6.07
2022-10-31T20:03:55.846Z,6.65
2022-10-31T20:06:26.640Z,5.90
2022-10-31T20:08:55.745Z,6.53
2022-10-31T20:11:28.503Z,6.03
2022-10-31T20:13:57.139Z,6.50
2022-10-31T20:16:25.694Z,7.03
2022-10-31T20:18:56.495Z,6.03
2022-10-31T20:21:26.579Z,6.10
2022-10-31T20:23:56.516Z,6.88
2022-10-31T20:26:27.085Z,6.70
2022-10-31T20:28:57.206Z,5.30
2022-10-31T20:31:27.186Z,5.65
2022-10-31T20:33:55.835Z,5.65
2022-10-31T20:36:25.749Z,5.78
2022-10-31T20:38:54.091Z,5.38
2022-10-31T20:41:22.329Z,5.93
2022-10-31T20:43:54.591Z,5.63
2022-10-31T20:46:27.369Z,5.45
2022-10-31T20:48:56.030Z,5.53
2022-10-31T20:51:25.988Z,4.93
2022-10-31T20:53:58.111Z,4.65
2022-10-31T20:56:28.027Z,5.43
2022-10-31T20:58:58.219Z,4.68
2022-10-31T21:01:28.220Z,4.85
2022-10-31T21:03:56.770Z,4.45
2022-10-31T21:06:26.511Z,5.25
2022-10-31T21:08:55.102Z,5.38
2022-10-31T21:11:27.787Z,5.45
2022-10-31T21:13:57.840Z,5.25
2022-10-31T21:16:28.353Z,6.57
2022-10-31T21:18:56.878Z,5.68
2022-10-31T21:21:32.133Z,7.25
2022-10-31T21:24:05.033Z,5.55
2022-10-31T21:26:47.057Z,5.72
2022-10-31T21:29:17.520Z,5.20
2022-10-31T21:31:46.294Z,5.45
2022-10-31T21:34:14.614Z,5.40
2022-10-31T21:36:42.800Z,4.70
2022-10-31T21:39:15.868Z,4.53
2022-10-31T21:41:46.761Z,3.95
2022-10-31T21:44:17.395Z,4.30
2022-10-31T21:46:47.301Z,3.70
2022-10-31T21:49:15.630Z,3.95
2022-10-31T21:51:47.595Z,3.92
2022-10-31T21:54:33.335Z,3.33
2022-10-31T21:57:03.269Z,3.40
2022-10-31T21:59:32.654Z,3.40
2022-10-31T22:02:02.344Z,3.65
2022-10-31T22:04:30.536Z,3.40
2022-10-31T22:06:58.521Z,3.10
2022-10-31T22:09:26.724Z,2.95
2022-10-31T22:11:54.699Z,3.60
2022-10-31T22:14:27.928Z,4.00
2022-10-31T22:17:00.524Z,4.47
2022-10-31T22:19:28.533Z,7.38
2022-10-31T22:21:56.563Z,5.97
2022-10-31T22:24:28.084Z,6.03
2022-10-31T22:26:59.940Z,5.70
2022-10-31T22:29:28.830Z,6.47
2022-10-31T22:31:59.679Z,6.10
2022-10-31T22:34:29.771Z,5.90
2022-10-31T22:36:59.032Z,6.13
2022-10-31T22:39:29.890Z,7.78
2022-10-31T22:41:58.267Z,7.45
2022-10-31T22:44:28.998Z,11.48
2022-10-31T22:46:58.442Z,9.05
2022-10-31T22:49:26.512Z,8.35
2022-10-31T22:51:55.398Z,8.30
2022-10-31T22:54:23.398Z,8.80
2022-10-31T22:56:51.344Z,8.85
2022-10-31T22:59:19.345Z,8.85
2022-10-31T23:01:47.785Z,8.60
2022-10-31T23:04:21.763Z,9.25
2022-10-31T23:06:51.990Z,8.88
2022-10-31T23:09:20.059Z,8.52
2022-10-31T23:11:48.035Z,8.65
2022-10-31T23:14:20.484Z,8.35
2022-10-31T23:16:51.618Z,8.43
2022-10-31T23:19:23.181Z,8.77
2022-10-31T23:21:56.062Z,8.88
2022-10-31T23:24:26.744Z,8.07
2022-10-31T23:27:08.267Z,8.48
2022-10-31T23:29:38.800Z,9.15
2022-10-31T23:32:09.960Z,7.82
2022-10-31T23:34:39.558Z,7.70
2022-10-31T23:39:35.530Z,7.43
2022-10-31T23:42:08.335Z,7.55
2022-10-31T23:44:38.917Z,7.47
2022-10-31T23:47:07.571Z,7.57
2022-10-31T23:49:35.574Z,7.65
2022-10-31T23:52:06.185Z,6.88
2022-10-31T23:54:36.518Z,7.57
2022-10-31T23:57:05.217Z,8.38
2022-10-31T23:59:34.868Z,9.10
